Time;durP1;ratioP1;P1;durP2;ratioP2;P2;SDS_P1;SDS_P2;PMS_P1;PMS_P2;Temp;Humidity;BMP_temperature;BMP_pressure;BME280_temperature;BME280_humidity;BME280_pressure;Samples;Min_cycle;Max_cycle;Signal;HPM_P1;HPM_P2
2022/01/18 09:50:00;;;;;;;;;;;21.00;96.60;;;;;;5083482;28;20302;-71
2022/01/18 09:52:26;;;;;;;;;;;21.00;96.60;;;;;;5075021;28;19919;-71
2022/01/18 09:54:53;;;;;;;;;;;21.00;96.50;;;;;;5089876;28;19994;-70
2022/01/18 09:57:19;;;;;;;;;;;20.90;96.50;;;;;;5074696;28;19908;-71
2022/01/18 09:59:46;;;;;;;;;;;20.90;96.60;;;;;;5092508;28;19904;-71
2022/01/18 10:02:13;;;;;;;;;;;21.00;96.50;;;;;;5092655;28;19908;-72
2022/01/18 10:04:43;;;;;;;;;;;20.90;96.50;;;;;;5092720;28;19912;-72
2022/01/18 10:07:09;;;;;;;;;;;20.90;96.50;;;;;;5092802;28;20281;-71
2022/01/18 10:09:36;;;;;;;;;;;20.80;96.40;;;;;;5092556;28;19982;-71
2022/01/18 10:12:05;;;;;;;;;;;20.80;96.50;;;;;;5092592;28;20293;-71
2022/01/18 10:14:32;;;;;;;;;;;20.90;96.50;;;;;;5106283;28;20002;-72
2022/01/18 10:16:58;;;;;;;;;;;20.80;96.40;;;;;;5113085;28;19908;-72
2022/01/18 10:19:36;;;;;;;;;;;20.80;96.40;;;;;;5094796;28;19910;-71
2022/01/18 10:22:13;;;;;;;;;;;20.80;96.40;;;;;;5112592;28;19960;-71
2022/01/18 10:24:40;;;;;;;;;;;20.80;96.50;;;;;;5097026;28;19922;-70
2022/01/18 10:27:07;;;;;;;;;;;20.80;96.30;;;;;;5092262;28;19915;-71
2022/01/18 10:29:46;;;;;;;;;;;20.80;96.40;;;;;;5092146;28;19908;-71
2022/01/18 10:32:35;;;;;;;;;;;20.80;96.50;;;;;;5092510;28;19915;-71
2022/01/18 10:37:31;;;;;;;;;;;20.70;96.40;;;;;;5094658;28;19960;-71
2022/01/18 10:39:59;;;;;;;;;;;20.80;96.50;;;;;;5112218;28;19943;-71
2022/01/18 10:42:31;;;;;;;;;;;20.70;96.40;;;;;;5112484;28;19907;-72
2022/01/18 10:45:09;;;;;;;;;;;20.80;96.50;;;;;;5110667;28;19937;-71
2022/01/18 10:47:36;;;;;;;;;;;20.80;96.40;;;;;;5111402;28;19947;-72
2022/01/18 15:21:06;;;;;;;;;;;21.00;89.90;;;;;;5068211;28;19986;-68
2022/01/18 15:23:33;;;;;;;;;;;21.00;89.90;;;;;;5109625;28;19973;-69
2022/01/18 15:25:59;;;;;;;;;;;21.00;90.00;;;;;;5093664;28;19913;-68
2022/01/18 15:28:26;;;;;;;;;;;21.00;89.40;;;;;;5111928;28;19910;-69
2022/01/18 15:30:52;;;;;;;;;;;21.00;89.70;;;;;;5114832;27;19939;-70
2022/01/18 15:33:19;;;;;;;;;;;21.00;89.50;;;;;;5127573;28;19907;-68
2022/01/18 15:35:45;;;;;;;;;;;21.00;89.10;;;;;;5111563;28;19904;-69
2022/01/18 15:38:12;;;;;;;;;;;21.00;88.70;;;;;;5093497;28;19923;-69
2022/01/18 15:40:39;;;;;;;;;;;21.00;88.50;;;;;;5121934;28;19999;-69
2022/01/18 15:43:06;;;;;;;;;;;21.00;88.90;;;;;;5131848;27;19979;-69
2022/01/18 15:45:33;;;;;;;;;;;21.00;88.30;;;;;;5132179;27;19945;-69
2022/01/18 15:48:01;;;;;;;;;;;21.00;87.80;;;;;;5132154;28;19904;-69
2022/01/18 15:50:28;;;;;;;;;;;21.00;88.10;;;;;;5132131;27;19904;-69
2022/01/18 15:52:54;;;;;;;;;;;21.00;87.50;;;;;;5131715;28;19904;-69
2022/01/18 15:55:21;;;;;;;;;;;21.00;87.40;;;;;;5131209;28;19919;-69
2022/01/18 15:57:47;;;;;;;;;;;21.00;87.50;;;;;;5113771;28;19904;-68
2022/01/18 16:00:14;;;;;;;;;;;21.00;87.30;;;;;;5113033;28;19963;-68
2022/01/18 16:02:41;;;;;;;;;;;21.00;86.80;;;;;;5131958;28;19908;-69
2022/01/18 16:05:07;;;;;;;;;;;21.00;86.40;;;;;;5113670;28;19995;-68
2022/01/18 16:07:34;;;;;;;;;;;21.00;87.00;;;;;;5111467;28;19910;-68
2022/01/18 16:10:00;;;;;;;;;;;21.00;86.60;;;;;;5111689;28;19908;-69
2022/01/18 16:12:27;;;;;;;;;;;21.10;86.50;;;;;;5091045;28;19904;-68
2022/01/18 16:14:54;;;;;;;;;;;21.10;87.00;;;;;;5114959;28;19907;-68
2022/01/18 16:17:21;;;;;;;;;;;21.10;86.30;;;;;;5131737;27;19939;-70
2022/01/18 16:19:49;;;;;;;;;;;21.10;86.90;;;;;;5131739;28;19931;-69
2022/01/18 16:22:16;;;;;;;;;;;21.10;86.10;;;;;;5131653;27;19990;-68
2022/01/18 16:24:42;;;;;;;;;;;21.10;86.40;;;;;;5126489;27;20014;-68
2022/01/18 16:27:12;;;;;;;;;;;21.10;86.30;;;;;;5111127;28;19904;-69
2022/01/18 16:29:38;;;;;;;;;;;21.10;86.70;;;;;;5111338;28;20415;-68
2022/01/18 16:32:05;;;;;;;;;;;21.10;87.40;;;;;;5111286;28;19930;-68
2022/01/18 16:34:32;;;;;;;;;;;21.10;87.70;;;;;;5111575;28;19920;-69
2022/01/18 16:36:58;;;;;;;;;;;21.00;87.90;;;;;;5112461;28;19955;-68
2022/01/18 16:39:25;;;;;;;;;;;21.00;88.00;;;;;;5115149;28;19946;-69
2022/01/18 16:41:52;;;;;;;;;;;21.00;88.60;;;;;;5115256;28;20292;-68
2022/01/18 16:44:18;;;;;;;;;;;20.90;88.60;;;;;;5115283;27;19912;-68
2022/01/18 16:46:45;;;;;;;;;;;20.90;87.80;;;;;;5135375;27;19913;-69
2022/01/18 16:49:12;;;;;;;;;;;20.90;88.00;;;;;;5135274;27;19915;-68
2022/01/18 17:22:35;;;;;;;;;;;21.00;85.00;;;;;;5076301;28;19923;-68
2022/01/18 17:25:02;;;;;;;;;;;21.00;84.40;;;;;;5058925;28;19962;-68
2022/01/18 17:27:28;;;;;;;;;;;21.00;84.60;;;;;;5105259;28;19939;-68
2022/01/18 17:29:55;;;;;;;;;;;21.00;84.60;;;;;;5113400;28;20067;-68
2022/01/18 17:32:25;;;;;;;;;;;21.00;85.40;;;;;;5111133;28;19908;-69
2022/01/18 17:34:54;;;;;;;;;;;21.00;84.70;;;;;;5094173;28;19903;-68
2022/01/18 17:37:24;;;;;;;;;;;21.00;84.90;;;;;;5093309;28;20344;-68
2022/01/18 17:39:50;;;;;;;;;;;21.00;85.00;;;;;;5075223;28;20315;-68
2022/01/18 17:42:17;;;;;;;;;;;21.00;84.60;;;;;;5108156;28;20265;-67
2022/01/18 17:44:43;;;;;;;;;;;21.00;84.40;;;;;;5113432;28;19915;-68
2022/01/18 17:47:10;;;;;;;;;;;21.10;84.70;;;;;;5094586;28;19911;-69
2022/01/18 17:49:36;;;;;;;;;;;21.00;84.60;;;;;;5079588;28;19908;-68
2022/01/18 17:52:03;;;;;;;;;;;21.10;84.60;;;;;;5105530;28;19987;-68
2022/01/18 17:54:30;;;;;;;;;;;21.10;83.70;;;;;;5098412;28;19908;-68
2022/01/18 17:56:56;;;;;;;;;;;21.10;83.60;;;;;;5113048;28;19962;-68
2022/01/18 17:59:24;;;;;;;;;;;21.10;83.60;;;;;;5112955;28;19904;-69
2022/01/18 18:01:50;;;;;;;;;;;21.00;83.80;;;;;;5088873;28;20011;-68
2022/01/18 18:04:17;;;;;;;;;;;21.00;84.00;;;;;;5092418;28;19918;-68
2022/01/18 18:06:43;;;;;;;;;;;21.10;83.70;;;;;;5092906;28;19987;-69
2022/01/18 18:09:10;;;;;;;;;;;21.10;83.70;;;;;;5092846;28;20006;-69
2022/01/18 18:11:36;;;;;;;;;;;21.10;83.70;;;;;;5101798;28;19914;-68
2022/01/18 18:14:03;;;;;;;;;;;21.00;83.40;;;;;;5112771;28;19938;-68
2022/01/18 18:16:30;;;;;;;;;;;21.10;83.90;;;;;;5113131;28;20332;-68
2022/01/18 18:18:56;;;;;;;;;;;21.10;84.50;;;;;;5113053;28;20352;-68
2022/01/18 18:21:23;;;;;;;;;;;21.10;85.40;;;;;;5087449;28;19943;-68
2022/01/18 18:23:49;;;;;;;;;;;21.00;85.80;;;;;;5092115;28;20734;-69
2022/01/18 18:26:16;;;;;;;;;;;21.10;86.20;;;;;;5092424;28;19911;-69
2022/01/18 18:28:42;;;;;;;;;;;21.00;86.40;;;;;;5103495;28;20029;-70
2022/01/18 18:31:10;;;;;;;;;;;20.90;86.60;;;;;;5112405;28;19907;-69
2022/01/18 18:33:38;;;;;;;;;;;20.90;87.10;;;;;;5112740;28;20023;-69
2022/01/18 18:36:04;;;;;;;;;;;20.80;87.10;;;;;;5112476;28;19903;-69
2022/01/18 18:38:39;;;;;;;;;;;20.80;87.90;;;;;;5112382;28;19994;-68
2022/01/18 18:41:08;;;;;;;;;;;20.80;88.10;;;;;;5112499;28;19908;-68
2022/01/18 18:46:01;;;;;;;;;;;20.50;89.10;;;;;;5112614;28;19953;-69
2022/01/18 18:48:28;;;;;;;;;;;20.40;89.90;;;;;;5112549;28;19907;-69
2022/01/18 18:50:54;;;;;;;;;;;20.30;90.30;;;;;;5112253;28;19912;-69
2022/01/18 21:02:28;;;;;;;;;;;19.00;95.20;;;;;;5081235;28;19923;-70
2022/01/18 21:04:57;;;;;;;;;;;19.00;95.10;;;;;;5093710;28;19945;-70
2022/01/18 21:07:24;;;;;;;;;;;19.10;95.20;;;;;;5076290;28;19903;-70
2022/01/18 21:09:52;;;;;;;;;;;19.00;95.00;;;;;;5075259;28;19904;-70
2022/01/18 21:12:18;;;;;;;;;;;19.00;94.90;;;;;;5093723;28;19904;-72
2022/01/18 21:14:49;;;;;;;;;;;19.00;95.20;;;;;;5075846;28;19925;-71
2022/01/18 21:17:22;;;;;;;;;;;19.00;95.30;;;;;;5093892;28;19904;-71
2022/01/18 21:19:49;;;;;;;;;;;19.00;95.40;;;;;;5077111;28;19904;-70
2022/01/18 21:22:16;;;;;;;;;;;19.00;95.40;;;;;;5077399;28;19999;-71
2022/01/18 21:24:42;;;;;;;;;;;19.00;95.30;;;;;;5090651;28;19920;-71
2022/01/18 21:27:09;;;;;;;;;;;19.00;95.30;;;;;;5085859;28;19951;-71
2022/01/18 21:29:36;;;;;;;;;;;19.00;95.40;;;;;;5092620;28;19919;-71
2022/01/18 21:32:03;;;;;;;;;;;19.00;95.40;;;;;;5092533;28;19904;-71
2022/01/18 21:34:30;;;;;;;;;;;19.00;95.60;;;;;;5075259;28;19911;-71
2022/01/18 21:37:00;;;;;;;;;;;19.00;95.50;;;;;;5091314;28;19908;-71
2022/01/18 21:39:27;;;;;;;;;;;19.00;95.60;;;;;;5055790;28;20018;-75
2022/01/18 21:41:53;;;;;;;;;;;19.00;95.70;;;;;;5091497;28;19911;-72
2022/01/18 21:44:20;;;;;;;;;;;19.00;95.90;;;;;;5092829;28;19915;-75
2022/01/18 21:46:47;;;;;;;;;;;19.00;95.90;;;;;;5071699;28;20317;-74
2022/01/18 21:49:14;;;;;;;;;;;19.00;95.90;;;;;;5085505;28;19916;-73
2022/01/18 21:51:41;;;;;;;;;;;19.00;95.80;;;;;;5087550;28;19920;-74
2022/01/18 21:54:09;;;;;;;;;;;19.00;95.90;;;;;;5070182;28;19935;-73
2022/01/18 21:56:36;;;;;;;;;;;18.90;95.90;;;;;;5084579;28;19931;-72
2022/01/18 21:59:04;;;;;;;;;;;19.00;96.10;;;;;;5075721;28;19908;-73
2022/01/18 22:01:31;;;;;;;;;;;19.00;96.00;;;;;;5087491;28;19916;-72
2022/01/18 22:03:58;;;;;;;;;;;19.00;96.00;;;;;;5082407;28;19912;-73
2022/01/18 22:06:25;;;;;;;;;;;19.00;96.20;;;;;;5096120;28;19915;-73
2022/01/18 22:08:52;;;;;;;;;;;19.00;96.10;;;;;;5091763;28;20531;-73
2022/01/18 22:11:19;;;;;;;;;;;19.10;96.20;;;;;;5084819;28;19966;-72
2022/01/18 22:13:46;;;;;;;;;;;19.10;96.10;;;;;;5068831;28;19908;-72
2022/01/18 22:16:13;;;;;;;;;;;19.00;95.90;;;;;;5086304;28;19916;-73
2022/01/18 22:18:39;;;;;;;;;;;19.00;96.00;;;;;;5075643;28;20003;-73
2022/01/18 22:21:06;;;;;;;;;;;19.00;96.00;;;;;;5066700;28;19915;-72
2022/01/18 22:23:33;;;;;;;;;;;19.00;95.90;;;;;;5081871;28;19928;-72
2022/01/18 22:26:00;;;;;;;;;;;19.00;96.10;;;;;;5087636;28;19912;-73
2022/01/18 22:28:26;;;;;;;;;;;19.00;96.30;;;;;;5078478;28;20282;-73
2022/01/18 22:30:53;;;;;;;;;;;19.10;96.20;;;;;;5084518;28;19911;-71
2022/01/18 22:33:19;;;;;;;;;;;19.20;96.30;;;;;;5075294;28;19907;-75
2022/01/18 22:35:46;;;;;;;;;;;19.10;96.30;;;;;;5089424;28;20449;-73
2022/01/18 22:38:13;;;;;;;;;;;19.20;96.40;;;;;;5085767;28;19908;-73
2022/01/18 22:40:44;;;;;;;;;;;19.20;96.20;;;;;;5084793;28;19912;-73
2022/01/18 22:43:11;;;;;;;;;;;19.20;96.30;;;;;;5083129;28;19912;-73
2022/01/18 22:45:38;;;;;;;;;;;19.20;96.40;;;;;;5082816;28;20327;-73
